createdAt,value
2022-11-24T00:00:41.166Z,17.1
2022-11-24T00:01:43.372Z,17.2
2022-11-24T00:02:45.806Z,17.2
2022-11-24T00:03:48.632Z,17.2
2022-11-24T00:04:51.217Z,17.2
2022-11-24T00:05:53.724Z,17.3
2022-11-24T00:06:56.201Z,17.2
2022-11-24T00:07:58.420Z,17.2
2022-11-24T00:09:00.896Z,17.2
2022-11-24T00:10:03.103Z,17.2
2022-11-24T00:11:05.304Z,17.3
2022-11-24T00:12:07.776Z,17.3
2022-11-24T00:13:09.978Z,17.3
2022-11-24T00:14:12.462Z,17.2
2022-11-24T00:15:14.954Z,17.4
2022-11-24T00:16:17.549Z,17.2
2022-11-24T00:17:20.096Z,17.3
2022-11-24T00:18:22.568Z,17.3
2022-11-24T00:19:25.062Z,17.2
2022-11-24T00:20:27.314Z,17.3
2022-11-24T00:21:29.554Z,17.2
2022-11-24T00:22:32.026Z,17.3
2022-11-24T00:23:34.222Z,17.3
2022-11-24T00:24:36.899Z,17.3
2022-11-24T00:25:39.372Z,17.3
2022-11-24T00:26:41.576Z,17.3
2022-11-24T00:27:44.054Z,17.3
2022-11-24T00:28:46.247Z,17.3
2022-11-24T00:29:48.724Z,17.3
2022-11-24T00:30:51.291Z,17.2
2022-11-24T00:31:53.924Z,17.3
2022-11-24T00:32:56.401Z,17.2
2022-11-24T00:33:58.332Z,17.4
2022-11-24T00:35:00.828Z,17.4
2022-11-24T00:36:03.394Z,17.4
2022-11-24T00:37:05.881Z,17.3
2022-11-24T00:38:08.352Z,17.3
2022-11-24T00:39:10.561Z,17.4
2022-11-24T00:40:13.027Z,17.3
2022-11-24T00:41:15.503Z,17.3
2022-11-24T00:42:17.983Z,17.5
2022-11-24T00:43:20.191Z,17.5
2022-11-24T00:44:22.660Z,17.4
2022-11-24T00:45:25.143Z,17.4
2022-11-24T00:46:27.550Z,17.5
2022-11-24T00:47:30.516Z,17.3
2022-11-24T00:48:32.722Z,17.4
2022-11-24T00:49:35.208Z,17.4
2022-11-24T00:50:37.421Z,17.4
2022-11-24T00:51:39.952Z,17.4
2022-11-24T00:52:42.442Z,17.3
2022-11-24T00:53:44.919Z,17.3
2022-11-24T00:54:47.135Z,17.4
2022-11-24T00:55:49.604Z,17.4
2022-11-24T00:56:51.816Z,17.3
2022-11-24T00:57:54.297Z,17.4
2022-11-24T00:58:56.788Z,17.5
2022-11-24T00:59:59.449Z,17.4
2022-11-24T01:01:02.080Z,17.5
2022-11-24T01:02:04.692Z,17.4
2022-11-24T01:03:07.426Z,17.5
2022-11-24T01:04:09.620Z,17.5
2022-11-24T01:05:11.818Z,17.4
2022-11-24T01:06:14.318Z,17.4
2022-11-24T01:07:17.025Z,17.5
2022-11-24T01:08:19.815Z,17.5
2022-11-24T01:09:21.726Z,17.5
2022-11-24T01:10:24.236Z,17.5
2022-11-24T01:11:26.725Z,17.5
2022-11-24T01:12:28.944Z,17.5
2022-11-24T01:13:31.414Z,17.4
2022-11-24T01:14:34.680Z,17.5
2022-11-24T01:15:38.562Z,17.5
2022-11-24T01:16:41.305Z,17.5
2022-11-24T01:17:43.808Z,17.4
2022-11-24T01:18:46.304Z,17.4
2022-11-24T01:19:48.499Z,17.5
2022-11-24T01:20:50.680Z,17.4
2022-11-24T01:21:53.179Z,17.5
2022-11-24T01:22:55.698Z,17.5
2022-11-24T01:23:57.644Z,17.5
2022-11-24T01:25:00.114Z,17.5
2022-11-24T01:26:02.586Z,17.5
2022-11-24T01:27:04.501Z,17.5
2022-11-24T01:28:06.713Z,17.5
2022-11-24T01:29:08.906Z,17.5
2022-11-24T01:30:10.822Z,17.5
2022-11-24T01:31:13.461Z,17.5
2022-11-24T01:32:16.390Z,17.5
2022-11-24T01:33:18.886Z,17.5
2022-11-24T01:34:21.354Z,17.5
2022-11-24T01:35:23.870Z,17.6
2022-11-24T01:36:26.070Z,17.6
2022-11-24T01:37:28.556Z,17.5
2022-11-24T01:38:31.299Z,17.6
2022-11-24T01:39:33.785Z,17.6
2022-11-24T01:40:36.262Z,17.5
2022-11-24T01:41:38.724Z,17.6
2022-11-24T01:42:40.923Z,17.5
2022-11-24T01:43:43.387Z,17.6
2022-11-24T01:44:45.631Z,17.5
2022-11-24T01:45:47.995Z,17.6
2022-11-24T01:46:50.364Z,17.6
2022-11-24T01:47:52.617Z,17.5
2022-11-24T01:48:55.050Z,17.5
2022-11-24T01:49:57.513Z,17.5
2022-11-24T01:50:59.704Z,17.5
2022-11-24T01:52:02.194Z,17.5
2022-11-24T01:53:04.687Z,17.6
2022-11-24T01:54:07.234Z,17.5
2022-11-24T01:55:09.430Z,17.6
2022-11-24T01:56:11.630Z,17.6
2022-11-24T01:57:13.832Z,17.5
2022-11-24T01:58:16.041Z,17.6
2022-11-24T01:59:18.496Z,17.6
2022-11-24T02:00:20.974Z,17.5
2022-11-24T02:01:23.547Z,17.6
2022-11-24T02:02:26.083Z,17.6
2022-11-24T02:03:28.571Z,17.5
2022-11-24T02:04:30.647Z,17.6
2022-11-24T02:05:33.837Z,17.7
2022-11-24T02:06:36.322Z,17.5
2022-11-24T02:07:39.096Z,17.5
2022-11-24T02:08:41.910Z,17.5
2022-11-24T02:09:44.438Z,17.5
2022-11-24T02:10:46.655Z,17.6
2022-11-24T02:11:49.128Z,17.5
2022-11-24T02:12:51.598Z,17.6
2022-11-24T02:13:54.064Z,17.6
2022-11-24T02:14:56.545Z,17.7
2022-11-24T02:15:59.094Z,17.5
2022-11-24T02:17:01.561Z,17.6
2022-11-24T02:18:04.031Z,17.6
2022-11-24T02:19:06.238Z,17.6
2022-11-24T02:20:08.748Z,17.6
2022-11-24T02:21:11.218Z,17.5
2022-11-24T02:22:12.953Z,17.6
2022-11-24T02:23:14.884Z,17.6
2022-11-24T02:24:17.636Z,17.6
2022-11-24T02:25:20.146Z,17.6
2022-11-24T02:26:22.631Z,17.7
2022-11-24T02:27:24.831Z,17.6
2022-11-24T02:28:27.301Z,17.6
2022-11-24T02:29:29.494Z,17.5
2022-11-24T02:30:31.682Z,17.5
2022-11-24T02:31:34.291Z,17.5
2022-11-24T02:32:36.729Z,17.6
2022-11-24T02:33:38.931Z,17.6
2022-11-24T02:34:41.128Z,17.6
2022-11-24T02:35:43.331Z,17.5
2022-11-24T02:36:45.530Z,17.6
2022-11-24T02:37:47.736Z,17.7
2022-11-24T02:38:49.936Z,17.6
2022-11-24T02:39:52.427Z,17.6
2022-11-24T02:40:54.954Z,17.6
2022-11-24T02:41:57.187Z,17.6
2022-11-24T02:42:59.113Z,17.6
2022-11-24T02:44:01.322Z,17.7
2022-11-24T02:45:03.239Z,17.6
2022-11-24T02:46:05.859Z,17.6
2022-11-24T02:47:08.526Z,17.7
2022-11-24T02:48:11.011Z,17.6
2022-11-24T02:49:13.218Z,17.6
2022-11-24T02:50:15.415Z,17.6
2022-11-24T02:51:17.917Z,17.6
2022-11-24T02:52:20.117Z,17.6
2022-11-24T02:53:22.665Z,17.7
2022-11-24T02:54:25.132Z,17.6
2022-11-24T02:55:27.337Z,17.7
2022-11-24T02:56:29.846Z,17.6
2022-11-24T02:57:32.338Z,17.7
2022-11-24T02:58:34.523Z,17.6
2022-11-24T02:59:37.004Z,17.7
2022-11-24T03:00:39.475Z,17.6
2022-11-24T03:01:42.055Z,17.6
2022-11-24T03:02:44.866Z,17.6
2022-11-24T03:03:47.733Z,17.6
2022-11-24T03:04:50.284Z,17.7
2022-11-24T03:05:52.483Z,17.5
2022-11-24T03:06:54.973Z,17.6
2022-11-24T03:07:57.486Z,17.6
2022-11-24T03:08:59.681Z,17.6
2022-11-24T03:10:01.876Z,17.6
2022-11-24T03:11:04.364Z,17.6
2022-11-24T03:12:06.597Z,17.6
2022-11-24T03:13:09.083Z,17.7
2022-11-24T03:14:11.277Z,17.6
2022-11-24T03:15:13.464Z,17.6
2022-11-24T03:16:16.036Z,17.7
2022-11-24T03:17:18.217Z,17.7
2022-11-24T03:18:20.397Z,17.6
2022-11-24T03:19:22.879Z,17.6
2022-11-24T03:20:24.798Z,17.6
2022-11-24T03:21:26.993Z,17.7
2022-11-24T03:22:29.227Z,17.6
2022-11-24T03:23:31.748Z,17.6
2022-11-24T03:24:34.909Z,17.6
2022-11-24T03:25:38.142Z,17.6
2022-11-24T03:26:40.365Z,17.6
2022-11-24T03:27:42.584Z,17.6
2022-11-24T03:28:44.844Z,17.6
2022-11-24T03:29:47.320Z,17.7
2022-11-24T03:30:49.745Z,17.6
2022-11-24T03:31:52.571Z,17.6
2022-11-24T03:32:55.044Z,17.7
2022-11-24T03:33:57.437Z,17.7
2022-11-24T03:34:59.623Z,17.7
2022-11-24T03:36:01.820Z,17.7
2022-11-24T03:37:04.008Z,17.8
2022-11-24T03:38:06.516Z,17.7
2022-11-24T03:39:08.729Z,17.7
2022-11-24T03:40:11.207Z,17.7
2022-11-24T03:41:13.403Z,17.7
2022-11-24T03:42:15.918Z,17.7
2022-11-24T03:43:17.851Z,17.7
2022-11-24T03:44:20.360Z,17.7
2022-11-24T03:46:27.719Z,17.6
2022-11-24T03:47:29.818Z,17.7
2022-11-24T03:48:32.282Z,17.7
2022-11-24T03:49:34.976Z,17.6
2022-11-24T03:50:38.039Z,17.7
2022-11-24T03:51:40.618Z,17.7
2022-11-24T03:52:43.108Z,17.7
2022-11-24T03:53:45.635Z,17.6
2022-11-24T03:54:48.108Z,17.6
2022-11-24T03:55:50.591Z,17.6
2022-11-24T03:56:52.721Z,17.6
2022-11-24T03:57:55.417Z,17.7
2022-11-24T03:58:57.999Z,17.6
2022-11-24T04:00:00.235Z,17.6
2022-11-24T04:01:02.466Z,17.6
2022-11-24T04:02:05.197Z,17.6
2022-11-24T04:03:08.140Z,17.7
2022-11-24T04:04:10.364Z,17.7
2022-11-24T04:05:12.594Z,17.7
2022-11-24T04:06:15.065Z,17.7
2022-11-24T04:07:17.451Z,17.7
2022-11-24T04:08:20.291Z,17.6
2022-11-24T04:09:22.823Z,17.5
2022-11-24T04:10:25.084Z,17.7
2022-11-24T04:11:27.551Z,17.7
2022-11-24T04:12:30.024Z,17.7
2022-11-24T04:13:32.235Z,17.6
2022-11-24T04:14:35.578Z,17.6
2022-11-24T04:15:39.305Z,17.7
2022-11-24T04:16:41.751Z,17.6
2022-11-24T04:17:43.765Z,17.6
2022-11-24T04:18:46.936Z,17.6
2022-11-24T04:19:49.419Z,17.6
2022-11-24T04:20:51.625Z,17.6
2022-11-24T04:21:54.102Z,17.6
2022-11-24T04:22:56.029Z,17.6
2022-11-24T04:23:58.349Z,17.6
2022-11-24T04:25:00.981Z,17.6
2022-11-24T04:26:02.893Z,17.6
2022-11-24T04:27:05.375Z,17.6
2022-11-24T04:28:07.578Z,17.6
2022-11-24T04:29:10.066Z,17.6
2022-11-24T04:30:12.588Z,17.5
2022-11-24T04:31:15.315Z,17.5
2022-11-24T04:32:17.785Z,17.5
2022-11-24T04:33:20.258Z,17.5
2022-11-24T04:34:22.456Z,17.6
2022-11-24T04:35:24.647Z,17.6
2022-11-24T04:36:26.841Z,17.5
2022-11-24T04:37:29.322Z,17.6
2022-11-24T04:39:36.775Z,17.5
2022-11-24T04:40:39.298Z,17.5
2022-11-24T04:41:41.231Z,17.5
2022-11-24T04:42:43.422Z,17.5
2022-11-24T04:43:45.894Z,17.6
2022-11-24T04:44:48.403Z,17.5
2022-11-24T04:45:50.928Z,17.5
2022-11-24T04:46:53.640Z,17.5
2022-11-24T04:47:56.229Z,17.5
2022-11-24T04:48:58.126Z,17.5
2022-11-24T04:50:00.295Z,17.5
2022-11-24T04:51:02.249Z,17.6
2022-11-24T04:52:04.777Z,17.5
2022-11-24T04:53:07.260Z,17.5
2022-11-24T04:54:09.739Z,17.5
2022-11-24T04:55:11.952Z,17.4
2022-11-24T04:56:14.184Z,17.5
2022-11-24T04:57:16.663Z,17.4
2022-11-24T04:58:18.882Z,17.5
2022-11-24T04:59:21.365Z,17.4
2022-11-24T05:00:23.872Z,17.5
2022-11-24T05:01:26.529Z,17.5
2022-11-24T05:02:29.305Z,17.4
2022-11-24T05:03:31.781Z,17.5
2022-11-24T05:04:34.923Z,17.5
2022-11-24T05:05:39.146Z,17.4
2022-11-24T05:06:41.342Z,17.4
2022-11-24T05:07:43.343Z,17.5
2022-11-24T05:08:46.027Z,17.4
2022-11-24T05:10:53.537Z,17.4
2022-11-24T05:11:55.210Z,17.5
2022-11-24T05:12:57.679Z,17.5
2022-11-24T05:14:00.152Z,17.5
2022-11-24T05:15:02.626Z,17.5
2022-11-24T05:16:05.306Z,17.4
2022-11-24T05:17:08.110Z,17.5
2022-11-24T05:18:10.618Z,17.5
2022-11-24T05:19:12.819Z,17.4
2022-11-24T05:20:15.013Z,17.4
2022-11-24T05:21:17.269Z,17.4
2022-11-24T05:22:19.756Z,17.4
2022-11-24T05:23:22.227Z,17.5
2022-11-24T05:24:24.713Z,17.4
2022-11-24T05:25:26.920Z,17.5
2022-11-24T05:26:29.142Z,17.4
2022-11-24T05:27:31.687Z,17.4
2022-11-24T05:28:33.877Z,17.4
2022-11-24T05:29:36.355Z,17.4
2022-11-24T05:30:38.850Z,17.5
2022-11-24T05:31:41.504Z,17.4
2022-11-24T05:32:44.044Z,17.4
2022-11-24T05:33:46.535Z,17.5
2022-11-24T05:34:49.034Z,17.5
2022-11-24T05:35:51.508Z,17.4
2022-11-24T05:36:53.994Z,17.3
2022-11-24T05:37:56.215Z,17.5
2022-11-24T05:38:58.701Z,17.4
2022-11-24T05:40:01.166Z,17.4
2022-11-24T05:41:03.653Z,17.5
2022-11-24T05:42:06.138Z,17.4
2022-11-24T05:43:08.375Z,17.4
2022-11-24T05:44:10.862Z,17.4
2022-11-24T05:45:13.085Z,17.4
2022-11-24T05:46:14.842Z,17.4
2022-11-24T05:47:17.567Z,17.5
2022-11-24T05:48:20.149Z,17.4
2022-11-24T05:49:22.659Z,17.4
2022-11-24T05:50:24.871Z,17.4
2022-11-24T05:51:27.346Z,17.5
2022-11-24T05:52:29.588Z,17.4
2022-11-24T05:53:32.119Z,17.4
2022-11-24T05:54:35.203Z,17.5
2022-11-24T05:55:38.505Z,17.4
2022-11-24T05:56:40.407Z,17.4
2022-11-24T05:57:42.896Z,17.4
2022-11-24T05:58:45.401Z,17.5
2022-11-24T05:59:47.908Z,17.4
2022-11-24T06:00:50.390Z,17.4
2022-11-24T06:01:53.076Z,17.3
2022-11-24T06:02:55.961Z,17.4
2022-11-24T06:03:59.057Z,17.4
2022-11-24T06:05:01.587Z,17.4
2022-11-24T06:06:04.058Z,17.4
2022-11-24T06:07:05.965Z,17.4
2022-11-24T06:08:08.737Z,17.4
2022-11-24T06:09:11.219Z,17.3
2022-11-24T06:10:13.702Z,17.4
2022-11-24T06:11:15.900Z,17.4
2022-11-24T06:12:18.012Z,17.4
2022-11-24T06:13:20.461Z,17.4
2022-11-24T06:14:23.243Z,17.4
2022-11-24T06:15:25.733Z,17.4
2022-11-24T06:16:28.010Z,17.3
2022-11-24T06:17:30.491Z,17.3
2022-11-24T06:18:32.426Z,17.3
2022-11-24T06:20:39.666Z,17.4
2022-11-24T06:21:48.141Z,17.4
2022-11-24T06:22:50.627Z,17.4
2022-11-24T06:23:53.092Z,17.4
2022-11-24T06:24:55.284Z,17.3
2022-11-24T06:25:57.211Z,17.3
2022-11-24T06:26:59.408Z,17.3
2022-11-24T06:28:01.329Z,17.4
2022-11-24T06:29:03.528Z,17.4
2022-11-24T06:30:05.765Z,17.3
2022-11-24T06:31:08.550Z,17.4
2022-11-24T06:32:11.154Z,17.4
2022-11-24T06:33:13.074Z,17.4
2022-11-24T06:34:15.583Z,17.3
2022-11-24T06:35:18.105Z,17.3
2022-11-24T06:36:20.577Z,17.3
2022-11-24T06:37:23.104Z,17.4
2022-11-24T06:38:25.310Z,17.4
2022-11-24T06:39:27.506Z,17.4
2022-11-24T06:40:29.978Z,17.3
2022-11-24T06:41:32.464Z,17.3
2022-11-24T06:42:34.934Z,17.3
2022-11-24T06:43:36.850Z,17.3
2022-11-24T06:44:38.515Z,17.3
2022-11-24T06:45:40.957Z,17.4
2022-11-24T06:46:43.712Z,17.3
2022-11-24T06:47:46.186Z,17.3
2022-11-24T06:48:48.386Z,17.4
2022-11-24T06:49:50.903Z,17.3
2022-11-24T06:50:53.425Z,17.3
2022-11-24T06:51:55.905Z,17.3
2022-11-24T06:52:58.119Z,17.3
2022-11-24T06:54:00.612Z,17.4
2022-11-24T06:55:02.794Z,17.3
2022-11-24T06:56:06.112Z,17.3
2022-11-24T06:57:12.649Z,17.3
2022-11-24T06:58:14.859Z,17.4
2022-11-24T06:59:17.057Z,17.3
2022-11-24T07:00:19.391Z,17.3
2022-11-24T07:01:22.215Z,17.3
2022-11-24T07:02:24.580Z,17.4
2022-11-24T07:03:27.023Z,17.4
2022-11-24T07:04:29.865Z,17.4
2022-11-24T07:05:32.558Z,17.3
2022-11-24T07:06:34.806Z,17.4
2022-11-24T07:07:36.891Z,17.3
2022-11-24T07:08:39.681Z,17.2
2022-11-24T07:09:41.878Z,17.3
2022-11-24T07:10:44.366Z,17.4
2022-11-24T07:11:46.579Z,17.3
2022-11-24T07:12:49.074Z,17.3
2022-11-24T07:14:56.272Z,17.3
2022-11-24T07:15:58.584Z,17.3
2022-11-24T07:17:01.033Z,17.2
2022-11-24T07:18:03.701Z,17.3
2022-11-24T07:19:05.626Z,17.3
2022-11-24T07:20:08.119Z,17.3
2022-11-24T07:21:10.619Z,17.2
2022-11-24T07:22:13.191Z,17.3
2022-11-24T07:23:15.387Z,17.2
2022-11-24T07:24:17.622Z,17.3
2022-11-24T07:25:19.958Z,17.3
2022-11-24T07:26:22.169Z,17.3
2022-11-24T07:27:24.651Z,17.3
2022-11-24T07:28:26.869Z,17.3
2022-11-24T07:29:29.406Z,17.4
2022-11-24T07:30:31.893Z,17.3
2022-11-24T07:31:34.570Z,17.3
2022-11-24T07:32:37.096Z,17.4
2022-11-24T07:33:39.589Z,17.3
2022-11-24T07:34:41.801Z,17.3
2022-11-24T07:35:43.438Z,17.4
2022-11-24T07:36:45.724Z,17.3
2022-11-24T07:37:48.264Z,17.3
2022-11-24T07:38:50.204Z,17.3
2022-11-24T07:39:52.425Z,17.3
2022-11-24T07:40:54.676Z,17.3
2022-11-24T07:41:57.149Z,17.2
2022-11-24T07:42:59.368Z,17.3
2022-11-24T07:44:01.293Z,17.3
2022-11-24T07:45:03.488Z,17.3
2022-11-24T07:46:06.119Z,17.3
2022-11-24T07:47:08.835Z,17.3
2022-11-24T07:48:10.777Z,17.3
2022-11-24T07:49:13.290Z,17.3
2022-11-24T07:50:15.507Z,17.3
2022-11-24T07:51:17.731Z,17.3
2022-11-24T07:52:20.245Z,17.3
2022-11-24T07:53:22.827Z,17.3
2022-11-24T07:54:25.317Z,17.3
2022-11-24T07:55:27.842Z,17.3
2022-11-24T07:56:30.336Z,17.3
2022-11-24T07:57:32.819Z,17.3
2022-11-24T07:58:34.756Z,17.3
2022-11-24T07:59:37.002Z,17.3
2022-11-24T08:00:39.486Z,17.4
2022-11-24T08:01:42.051Z,17.3
2022-11-24T08:02:45.005Z,17.3
2022-11-24T08:03:47.735Z,17.2
2022-11-24T08:04:50.521Z,17.3
2022-11-24T08:06:57.697Z,17.3
2022-11-24T08:08:00.025Z,17.3
2022-11-24T08:09:02.577Z,17.3
2022-11-24T08:10:04.810Z,17.3
2022-11-24T08:11:07.048Z,17.3
2022-11-24T08:12:09.245Z,17.2
2022-11-24T08:13:11.719Z,17.3
2022-11-24T08:14:14.202Z,17.3
2022-11-24T08:15:16.671Z,17.2
2022-11-24T08:16:19.367Z,17.3
2022-11-24T08:17:22.017Z,17.3
2022-11-24T08:18:24.525Z,17.3
2022-11-24T08:19:26.757Z,17.3
2022-11-24T08:20:28.959Z,17.3
2022-11-24T08:21:30.898Z,17.4
2022-11-24T08:22:33.390Z,17.3
2022-11-24T08:23:35.905Z,17.3
2022-11-24T08:24:38.459Z,17.2
2022-11-24T08:25:40.947Z,17.2
2022-11-24T08:26:43.473Z,17.3
2022-11-24T08:27:45.427Z,17.3
2022-11-24T08:28:47.704Z,17.3
2022-11-24T08:29:50.215Z,17.3
2022-11-24T08:30:52.703Z,17.3
2022-11-24T08:31:54.988Z,17.3
2022-11-24T08:32:57.775Z,17.3
2022-11-24T08:34:00.260Z,17.3
2022-11-24T08:36:07.224Z,17.2
2022-11-24T08:37:09.435Z,17.3
2022-11-24T08:38:11.628Z,17.4
2022-11-24T08:39:14.227Z,17.3
2022-11-24T08:40:16.752Z,17.3
2022-11-24T08:41:18.984Z,17.2
2022-11-24T08:42:21.502Z,17.3
2022-11-24T08:43:23.995Z,17.3
2022-11-24T08:44:26.219Z,17.3
2022-11-24T08:46:33.902Z,17.3
2022-11-24T08:47:36.668Z,17.3
2022-11-24T08:48:38.861Z,17.2
2022-11-24T08:49:41.352Z,17.3
2022-11-24T08:50:43.549Z,17.3
2022-11-24T08:51:46.061Z,17.3
2022-11-24T08:52:48.574Z,17.3
2022-11-24T08:53:51.057Z,17.3
2022-11-24T08:54:53.007Z,17.3
2022-11-24T08:55:55.342Z,17.2
2022-11-24T08:56:57.265Z,17.3
2022-11-24T08:57:59.771Z,17.2
2022-11-24T08:59:02.398Z,17.3
2022-11-24T09:00:05.261Z,17.3
2022-11-24T09:01:07.567Z,17.3
2022-11-24T09:02:10.513Z,17.2
2022-11-24T09:03:13.014Z,17.2
2022-11-24T09:04:15.006Z,17.2
2022-11-24T09:06:22.178Z,17.2
2022-11-24T09:07:24.810Z,17.2
2022-11-24T09:08:27.507Z,17.3
2022-11-24T09:09:29.993Z,17.3
2022-11-24T09:10:32.236Z,17.2
2022-11-24T09:11:34.926Z,17.2
2022-11-24T09:12:37.348Z,17.2
2022-11-24T09:13:39.573Z,17.3
2022-11-24T09:14:41.785Z,17.3
2022-11-24T09:15:44.270Z,17.3
2022-11-24T09:16:46.268Z,17.3
2022-11-24T09:17:48.638Z,17.3
2022-11-24T09:18:51.116Z,17.3
2022-11-24T09:19:53.604Z,17.2
2022-11-24T09:20:55.812Z,17.3
2022-11-24T09:21:57.730Z,17.3
2022-11-24T09:23:00.275Z,17.3
2022-11-24T09:24:02.476Z,17.3
2022-11-24T09:25:04.759Z,17.3
2022-11-24T09:26:07.279Z,17.2
2022-11-24T09:27:09.828Z,17.3
2022-11-24T09:28:12.329Z,17.2
2022-11-24T09:29:14.842Z,17.3
2022-11-24T09:30:17.324Z,17.3
2022-11-24T09:31:19.956Z,17.2
2022-11-24T09:32:22.621Z,17.3
2022-11-24T09:33:25.106Z,17.2
2022-11-24T09:34:27.594Z,17.2
2022-11-24T09:35:29.799Z,17.3
2022-11-24T09:36:31.729Z,17.3
2022-11-24T09:37:33.915Z,17.3
2022-11-24T09:38:36.151Z,17.3
2022-11-24T09:39:38.365Z,17.3
2022-11-24T09:40:40.882Z,17.3
2022-11-24T09:41:43.103Z,17.2
2022-11-24T09:43:50.085Z,17.3
2022-11-24T09:44:52.611Z,17.3
2022-11-24T09:47:00.282Z,17.4
2022-11-24T09:48:03.152Z,17.2
2022-11-24T09:49:05.351Z,17.3
2022-11-24T09:50:07.840Z,17.2
2022-11-24T09:51:09.800Z,17.2
2022-11-24T09:52:11.778Z,17.2
2022-11-24T09:53:13.987Z,17.2
2022-11-24T09:54:16.523Z,17.3
2022-11-24T09:55:18.723Z,17.3
2022-11-24T09:56:20.930Z,17.2
2022-11-24T09:57:23.451Z,17.2
2022-11-24T09:58:25.707Z,17.2
2022-11-24T09:59:27.396Z,17.3
2022-11-24T10:00:29.668Z,17.2
2022-11-24T10:01:32.146Z,17.3
2022-11-24T10:02:35.194Z,17.2
2022-11-24T10:03:37.409Z,17.3
2022-11-24T10:04:40.105Z,17.3
2022-11-24T10:05:42.891Z,17.2
2022-11-24T10:06:45.102Z,17.3
2022-11-24T10:07:47.150Z,17.2
2022-11-24T10:08:49.609Z,17.2
2022-11-24T10:09:51.619Z,17.2
2022-11-24T10:10:54.122Z,17.3
2022-11-24T10:11:56.597Z,17.2
2022-11-24T10:12:58.536Z,17.2
2022-11-24T10:14:01.116Z,17.2
2022-11-24T10:15:03.309Z,17.2
2022-11-24T10:16:06.068Z,17.2
2022-11-24T10:17:08.306Z,17.2
2022-11-24T10:19:15.792Z,17.2
2022-11-24T10:20:18.399Z,17.2
2022-11-24T10:21:20.786Z,17.3
2022-11-24T10:22:23.294Z,17.2
2022-11-24T10:23:25.800Z,17.2
2022-11-24T10:24:27.448Z,17.2
2022-11-24T10:25:29.685Z,17.2
2022-11-24T10:26:32.186Z,17.3
2022-11-24T10:27:34.106Z,17.2
2022-11-24T10:28:36.650Z,17.3
2022-11-24T10:29:39.175Z,17.2
2022-11-24T10:30:41.802Z,17.2
2022-11-24T10:31:44.637Z,17.2
2022-11-24T10:32:47.138Z,17.3
2022-11-24T10:33:49.636Z,17.2
2022-11-24T10:34:52.178Z,17.2
2022-11-24T10:35:54.696Z,17.2
2022-11-24T10:36:57.187Z,17.2
2022-11-24T10:37:59.384Z,17.3
2022-11-24T10:39:01.620Z,17.3
2022-11-24T10:40:03.308Z,17.2
2022-11-24T10:41:05.848Z,17.1
2022-11-24T10:42:08.353Z,17.3
2022-11-24T10:43:10.273Z,17.2
2022-11-24T10:44:12.848Z,17.2
2022-11-24T10:45:15.092Z,17.2
2022-11-24T10:46:17.180Z,17.2
2022-11-24T10:47:20.065Z,17.2
2022-11-24T10:48:21.985Z,17.2
2022-11-24T10:49:24.190Z,17.3
2022-11-24T10:50:26.687Z,17.2
2022-11-24T10:51:28.609Z,17.2
2022-11-24T10:52:31.109Z,17.3
2022-11-24T10:53:33.308Z,17.3
2022-11-24T10:54:35.811Z,17.2
2022-11-24T10:55:37.461Z,17.3
2022-11-24T10:56:39.689Z,17.3
2022-11-24T10:57:41.907Z,17.2
2022-11-24T10:58:43.837Z,17.2
2022-11-24T10:59:46.355Z,17.2
2022-11-24T11:00:48.925Z,17.1
2022-11-24T11:01:51.276Z,17.2
2022-11-24T11:02:54.071Z,17.2
2022-11-24T11:03:56.969Z,17.2
2022-11-24T11:04:59.173Z,17.2
2022-11-24T11:06:01.376Z,17.2
2022-11-24T11:07:03.572Z,17.2
2022-11-24T11:08:06.347Z,17.2
2022-11-24T11:09:08.300Z,17.3
2022-11-24T11:10:10.273Z,17.2
2022-11-24T11:11:11.926Z,17.2
2022-11-24T11:13:19.133Z,17.2
2022-11-24T11:14:21.343Z,17.2
2022-11-24T11:15:23.834Z,17.2
2022-11-24T11:16:26.340Z,17.2
2022-11-24T11:17:29.251Z,17.2
2022-11-24T11:18:31.771Z,17.2
2022-11-24T11:20:38.666Z,17.2
2022-11-24T11:21:40.619Z,17.2
2022-11-24T11:22:42.813Z,17.1
2022-11-24T11:23:45.324Z,17.2
2022-11-24T11:24:47.824Z,17.1
2022-11-24T11:25:50.061Z,17.2
2022-11-24T11:26:52.532Z,17.2
2022-11-24T11:27:54.755Z,17.2
2022-11-24T11:28:57.386Z,17.2
2022-11-24T11:35:28.782Z,17.2
2022-11-24T11:36:31.363Z,17.3
2022-11-24T11:37:33.568Z,17.1
2022-11-24T11:38:35.806Z,17.2
2022-11-24T11:39:38.497Z,17.2
2022-11-24T11:40:45.655Z,17.1
2022-11-24T11:41:47.861Z,17.2
2022-11-24T11:43:55.341Z,17.2
2022-11-24T11:44:57.562Z,17.1
2022-11-24T11:45:59.995Z,17.2
2022-11-24T11:47:03.005Z,17.3
2022-11-24T11:48:05.793Z,17.2
2022-11-24T11:49:07.997Z,17.2
2022-11-24T11:50:10.477Z,17.1
2022-11-24T11:52:17.670Z,17.2
2022-11-24T11:53:20.370Z,17.1
2022-11-24T11:54:22.844Z,17.1
2022-11-24T11:55:25.338Z,17.2
2022-11-24T11:56:27.824Z,17.2
2022-11-24T11:57:30.390Z,17.1
2022-11-24T11:58:32.872Z,17.2
2022-11-24T11:59:35.082Z,17.3
2022-11-24T12:00:37.587Z,17.2
2022-11-24T12:01:39.801Z,17.1
2022-11-24T12:02:43.942Z,17.2
2022-11-24T12:03:48.254Z,17.2
2022-11-24T12:04:51.493Z,17.2
2022-11-24T12:05:54.040Z,17.2
2022-11-24T12:06:56.510Z,17.1
2022-11-24T12:08:02.331Z,17.2
2022-11-24T12:10:09.806Z,17.2
2022-11-24T12:11:12.107Z,17.2
2022-11-24T12:12:14.627Z,17.1
2022-11-24T12:13:16.855Z,17.2
2022-11-24T12:14:19.068Z,17.2
2022-11-24T12:15:21.378Z,17.2
2022-11-24T12:16:24.049Z,17.2
2022-11-24T12:17:26.782Z,17.1
2022-11-24T12:19:34.655Z,17.3
2022-11-24T12:20:38.214Z,17.2
2022-11-24T12:21:40.439Z,17.2
2022-11-24T12:22:42.681Z,17.2
2022-11-24T12:23:44.900Z,17.3
2022-11-24T12:24:47.449Z,17.2
2022-11-24T12:25:49.838Z,17.1
2022-11-24T12:26:53.832Z,17.2
2022-11-24T12:27:56.087Z,17.2
2022-11-24T12:28:58.607Z,17.2
2022-11-24T12:30:01.135Z,17.2
2022-11-24T12:31:03.736Z,17.2
2022-11-24T12:32:06.254Z,17.3
2022-11-24T12:33:08.739Z,17.2
2022-11-24T12:34:11.259Z,17.2
2022-11-24T12:35:13.465Z,17.2
2022-11-24T12:36:16.052Z,17.2
2022-11-24T12:37:18.584Z,17.2
2022-11-24T12:38:20.806Z,17.2
2022-11-24T12:39:23.030Z,17.2
2022-11-24T12:40:25.288Z,17.2
2022-11-24T12:42:32.482Z,17.1
2022-11-24T12:43:34.819Z,17.1
2022-11-24T12:44:36.996Z,17.2
2022-11-24T12:45:38.949Z,17.1
2022-11-24T12:46:41.275Z,17.2
2022-11-24T12:47:43.183Z,17.2
2022-11-24T12:48:45.406Z,17.2
2022-11-24T12:49:47.930Z,17.2
2022-11-24T12:50:49.864Z,17.2
2022-11-24T12:51:52.357Z,17.2
2022-11-24T12:53:59.834Z,17.2
2022-11-24T12:55:02.430Z,17.2
2022-11-24T12:56:04.962Z,17.2
2022-11-24T12:57:07.489Z,17.1
2022-11-24T12:58:11.950Z,17.3
2022-11-24T12:59:14.530Z,17.2
2022-11-24T13:00:17.013Z,17.2
2022-11-24T13:01:19.496Z,17.2
2022-11-24T13:02:22.235Z,17.2
2022-11-24T13:03:25.249Z,17.2
2022-11-24T13:04:27.458Z,17.1
2022-11-24T13:05:29.879Z,17.3
2022-11-24T13:06:32.633Z,17.2
2022-11-24T13:07:35.202Z,17.2
2022-11-24T13:08:37.354Z,17.2
2022-11-24T13:09:39.877Z,17.2
2022-11-24T13:11:47.393Z,17.3
2022-11-24T13:12:49.622Z,17.1
2022-11-24T13:13:52.123Z,17.1
2022-11-24T13:14:54.685Z,17.1
2022-11-24T13:19:11.998Z,17.2
2022-11-24T13:20:14.614Z,17.2
2022-11-24T13:21:16.827Z,17.2
2022-11-24T13:22:19.042Z,17.2
2022-11-24T13:23:21.022Z,17.1
2022-11-24T13:24:22.991Z,17.2
2022-11-24T13:25:24.914Z,17
2022-11-24T13:26:26.597Z,17.2
2022-11-24T13:27:28.819Z,17.2
2022-11-24T13:29:36.339Z,17.1
2022-11-24T13:30:38.961Z,17.1
2022-11-24T13:31:41.575Z,17.2
2022-11-24T13:32:44.465Z,17.1
2022-11-24T13:33:46.961Z,17.2
2022-11-24T13:34:49.234Z,17.2
2022-11-24T13:35:51.469Z,17.1
2022-11-24T13:36:54.008Z,17.1
2022-11-24T13:37:56.222Z,17.1
2022-11-24T13:38:58.499Z,17.1
2022-11-24T13:40:00.439Z,17.2
2022-11-24T13:42:07.667Z,17.2
2022-11-24T13:43:10.185Z,17.1
2022-11-24T13:44:12.110Z,17.2
2022-11-24T13:45:14.633Z,17.1
2022-11-24T13:46:17.289Z,17.3
2022-11-24T13:47:19.774Z,17.2
2022-11-24T13:48:23.036Z,17.1
2022-11-24T13:49:25.276Z,17.2
2022-11-24T13:50:27.561Z,17.2
2022-11-24T13:51:29.212Z,17.2
2022-11-24T13:52:31.425Z,17.2
2022-11-24T13:53:33.962Z,17.2
2022-11-24T13:54:36.569Z,17.2
2022-11-24T13:55:38.870Z,17.2
2022-11-24T13:56:41.380Z,17.2
2022-11-24T13:57:58.226Z,17.1
2022-11-24T13:59:00.463Z,17.2
2022-11-24T14:00:02.686Z,17.2
2022-11-24T14:01:05.219Z,17.1
2022-11-24T14:02:08.003Z,17.2
2022-11-24T14:03:10.942Z,17.2
2022-11-24T14:05:19.388Z,17.2
2022-11-24T14:06:21.930Z,17.1
2022-11-24T14:07:24.642Z,17.1
2022-11-24T14:08:27.578Z,17.2
2022-11-24T14:09:29.506Z,17
2022-11-24T14:10:31.741Z,17.1
2022-11-24T14:11:33.951Z,17.2
2022-11-24T14:12:35.895Z,17.1
2022-11-24T14:13:38.145Z,17.2
2022-11-24T14:14:40.645Z,17.1
2022-11-24T14:15:43.252Z,17.2
2022-11-24T14:16:45.183Z,17.2
2022-11-24T14:17:47.750Z,17.2
2022-11-24T14:18:50.230Z,17.2
2022-11-24T14:19:52.468Z,17.1
2022-11-24T14:20:54.525Z,17.1
2022-11-24T14:21:56.772Z,17.2
2022-11-24T14:22:58.969Z,17.2
2022-11-24T14:24:01.205Z,17.2
2022-11-24T14:25:03.124Z,17.2
2022-11-24T14:26:05.054Z,17.2